Time;durP1;ratioP1;P1;durP2;ratioP2;P2;SDS_P1;SDS_P2;PMS_P1;PMS_P2;Temp;Humidity;BMP_temperature;BMP_pressure;BME280_temperature;BME280_humidity;BME280_pressure;Samples;Min_cycle;Max_cycle;Signal;HPM_P1;HPM_P2
2022/05/14 00:01:40;;;;;;;8.15;2.38;;;13.70;99.90;;;;;;6190157;23;20052;-88
2022/05/14 00:04:07;;;;;;;6.10;1.40;;;13.70;99.90;;;;;;6165010;23;20013;-88
2022/05/14 00:06:32;;;;;;;6.68;1.48;;;13.60;99.90;;;;;;6156323;23;20132;-89
2022/05/14 00:09:05;;;;;;;5.03;1.53;;;13.60;99.90;;;;;;6135903;23;20028;-88
2022/05/14 00:14:16;;;;;;;6.80;1.83;;;13.70;99.90;;;;;;6159392;23;20481;-88
2022/05/14 00:16:42;;;;;;;6.85;1.77;;;13.60;99.90;;;;;;6160109;23;20405;-89
2022/05/14 00:19:08;;;;;;;7.28;1.83;;;13.60;99.90;;;;;;6135466;23;20036;-88
2022/05/14 00:21:35;;;;;;;4.97;1.85;;;13.60;99.90;;;;;;6135254;23;20017;-88
2022/05/14 00:24:02;;;;;;;3.95;1.83;;;13.60;99.90;;;;;;6159883;23;20047;-89
2022/05/14 00:26:28;;;;;;;4.82;1.38;;;13.60;99.90;;;;;;6135098;23;20095;-88
2022/05/14 00:28:56;;;;;;;5.17;1.67;;;13.60;99.90;;;;;;6159534;23;20021;-88
2022/05/14 00:31:22;;;;;;;5.70;1.65;;;13.60;99.90;;;;;;6135085;23;20021;-88
2022/05/14 00:33:47;;;;;;;7.13;1.60;;;13.50;99.90;;;;;;6134844;23;20020;-90
2022/05/14 00:36:14;;;;;;;6.45;1.70;;;13.50;99.90;;;;;;6135050;23;20091;-89
2022/05/14 00:38:40;;;;;;;7.35;1.95;;;13.50;99.90;;;;;;6159507;23;20017;-88
2022/05/14 00:41:07;;;;;;;3.70;1.50;;;13.50;99.90;;;;;;6135114;23;20028;-89
2022/05/14 00:43:46;;;;;;;5.60;1.65;;;13.50;99.90;;;;;;6135052;23;20337;-88
2022/05/14 00:46:17;;;;;;;5.00;1.42;;;13.40;99.90;;;;;;6134944;23;20020;-88
2022/05/14 00:48:44;;;;;;;4.35;1.40;;;13.40;99.90;;;;;;6135007;23;20081;-89
2022/05/14 00:51:16;;;;;;;5.25;1.70;;;13.40;99.90;;;;;;6159299;23;20023;-87
2022/05/14 00:53:49;;;;;;;7.03;1.80;;;13.40;99.90;;;;;;6159434;23;20025;-88
2022/05/14 00:56:20;;;;;;;5.63;1.40;;;13.30;99.90;;;;;;6159650;23;20013;-89
2022/05/14 00:59:13;;;;;;;5.88;1.55;;;13.30;99.90;;;;;;6134981;23;20017;-89
2022/05/14 01:01:39;;;;;;;4.40;1.40;;;13.40;99.90;;;;;;6135056;23;20024;-89
2022/05/14 01:04:05;;;;;;;;;;;13.30;99.90;;;;;;6135546;23;20358;-90
2022/05/14 01:06:33;;;;;;;6.03;1.73;;;13.30;99.90;;;;;;6159643;23;19927;-91
2022/05/14 01:09:00;;;;;;;4.15;1.52;;;13.30;99.90;;;;;;6135190;23;20049;-90
2022/05/14 01:11:28;;;;;;;6.88;1.83;;;13.30;99.90;;;;;;6135030;23;20013;-90
2022/05/14 01:13:54;;;;;;;6.88;1.63;;;13.30;99.90;;;;;;6135139;23;20071;-91
2022/05/14 01:16:20;;;;;;;6.55;1.55;;;13.30;99.90;;;;;;6135289;23;20036;-91
2022/05/14 01:18:46;;;;;;;5.10;1.30;;;13.30;99.90;;;;;;6135330;23;20021;-91
2022/05/14 01:21:18;;;;;;;11.60;1.95;;;13.30;99.90;;;;;;6134916;23;20021;-89
2022/05/14 01:26:55;;;;;;;5.95;1.50;;;13.30;99.90;;;;;;6159465;23;20469;-89
2022/05/14 01:29:24;;;;;;;9.60;2.60;;;13.20;99.90;;;;;;6134775;23;20020;-92
2022/05/14 01:31:51;;;;;;;6.28;1.85;;;13.20;99.90;;;;;;6159188;23;20363;-89
2022/05/14 01:34:22;;;;;;;6.60;1.80;;;13.20;99.90;;;;;;6134475;23;20096;-88
2022/05/14 01:36:48;;;;;;;4.72;1.92;;;13.20;99.90;;;;;;6159421;23;20092;-89
2022/05/14 01:39:14;;;;;;;8.87;1.87;;;13.20;99.90;;;;;;6159623;23;20013;-88
2022/05/14 01:41:40;;;;;;;6.85;1.90;;;13.20;99.90;;;;;;6135185;23;20249;-89
2022/05/14 01:44:06;;;;;;;3.92;1.25;;;13.20;99.90;;;;;;6135171;23;20509;-88
2022/05/14 01:46:32;;;;;;;6.22;1.55;;;13.20;99.90;;;;;;6162711;23;20052;-90
2022/05/14 01:48:58;;;;;;;6.93;1.60;;;13.20;99.90;;;;;;6137843;23;20024;-89
2022/05/14 01:51:24;;;;;;;5.18;1.65;;;13.10;99.90;;;;;;6162543;23;20017;-89
2022/05/14 01:53:51;;;;;;;6.37;2.00;;;13.10;99.90;;;;;;6162749;23;20023;-89
2022/05/14 01:56:17;;;;;;;5.68;1.63;;;13.10;99.90;;;;;;6138276;23;20071;-89
2022/05/14 01:58:42;;;;;;;5.50;1.93;;;13.10;99.90;;;;;;6162662;23;20013;-90
2022/05/14 02:01:23;;;;;;;5.50;1.80;;;13.10;99.90;;;;;;6138127;23;20620;-89
2022/05/14 02:03:53;;;;;;;7.10;1.73;;;13.10;99.90;;;;;;6137921;23;20347;-90
2022/05/14 02:06:20;;;;;;;8.18;2.10;;;13.10;99.90;;;;;;6137965;23;20024;-89
2022/05/14 02:08:46;;;;;;;5.68;1.80;;;13.10;99.90;;;;;;6138177;23;20021;-89
2022/05/14 02:11:13;;;;;;;9.53;2.07;;;13.10;99.90;;;;;;6137886;23;20458;-89
2022/05/14 02:13:41;;;;;;;5.63;2.28;;;13.10;99.90;;;;;;6137948;23;20096;-88
2022/05/14 02:16:07;;;;;;;8.55;1.85;;;13.10;99.90;;;;;;6162551;23;20017;-88
2022/05/14 02:18:33;;;;;;;7.05;2.05;;;13.00;99.90;;;;;;6162686;23;20021;-88
2022/05/14 02:20:58;;;;;;;5.23;2.00;;;13.00;99.90;;;;;;6138015;23;20019;-89
2022/05/14 02:23:24;;;;;;;10.18;2.20;;;13.00;99.90;;;;;;6137677;23;20017;-88
2022/05/14 02:25:50;;;;;;;7.35;2.42;;;13.00;99.90;;;;;;6137689;23;20017;-88
2022/05/14 02:28:17;;;;;;;9.10;2.25;;;12.90;99.90;;;;;;6136971;23;20474;-88
2022/05/14 02:30:44;;;;;;;7.82;2.33;;;12.90;99.90;;;;;;6136211;23;20021;-88
2022/05/14 02:33:10;;;;;;;9.98;2.92;;;12.90;99.90;;;;;;6161188;23;20351;-88
2022/05/14 02:35:36;;;;;;;8.25;2.20;;;12.80;99.90;;;;;;6137086;23;20264;-88
2022/05/14 02:38:02;;;;;;;6.53;2.00;;;12.90;99.90;;;;;;6137213;23;20169;-87
2022/05/14 02:40:29;;;;;;;10.07;2.70;;;12.80;99.90;;;;;;6137777;23;20071;-88
2022/05/14 02:42:55;;;;;;;10.18;2.33;;;12.80;99.90;;;;;;6137610;23;20021;-88
2022/05/14 02:45:21;;;;;;;7.65;2.20;;;12.80;99.90;;;;;;6162205;23;20017;-89
2022/05/14 02:47:47;;;;;;;5.38;1.98;;;12.70;99.90;;;;;;6138080;23;20017;-88
2022/05/14 02:50:14;;;;;;;5.68;2.35;;;12.70;99.90;;;;;;6162357;23;20031;-88
2022/05/14 02:52:40;;;;;;;10.10;2.45;;;12.60;99.90;;;;;;6137447;23;20020;-89
2022/05/14 02:55:07;;;;;;;7.78;2.05;;;12.70;99.90;;;;;;6162387;23;20019;-89
2022/05/14 02:57:34;;;;;;;5.72;2.15;;;12.70;99.90;;;;;;6135743;23;20031;-88
2022/05/14 03:00:00;;;;;;;6.28;2.13;;;12.70;99.90;;;;;;6160829;23;20052;-88
2022/05/14 03:02:26;;;;;;;7.95;2.72;;;12.60;99.90;;;;;;6160768;23;20025;-88
2022/05/14 03:04:51;;;;;;;7.60;2.00;;;12.60;99.90;;;;;;6136085;23;20059;-90
2022/05/14 03:07:17;;;;;;;6.90;2.40;;;12.60;99.90;;;;;;6136048;23;20099;-89
2022/05/14 03:09:43;;;;;;;8.35;2.47;;;12.60;99.90;;;;;;6136129;23;20017;-89
2022/05/14 03:12:12;;;;;;;6.45;2.45;;;12.60;99.90;;;;;;6135970;23;20021;-88
2022/05/14 03:14:38;;;;;;;8.10;2.38;;;12.60;99.90;;;;;;6136003;23;20024;-89
2022/05/14 03:17:05;;;;;;;10.23;2.28;;;12.50;99.90;;;;;;6135935;23;20021;-88
2022/05/14 03:19:31;;;;;;;8.73;2.05;;;12.50;99.90;;;;;;6135829;23;20342;-89
2022/05/14 03:21:56;;;;;;;6.32;1.70;;;12.50;99.90;;;;;;6136233;23;20346;-89
2022/05/14 03:24:23;;;;;;;6.30;2.07;;;12.50;99.90;;;;;;6160484;23;20100;-89
2022/05/14 03:26:50;;;;;;;6.68;2.30;;;12.40;99.90;;;;;;6135766;23;20295;-88
2022/05/14 03:29:15;;;;;;;4.90;1.80;;;12.50;99.90;;;;;;6135786;23;20016;-88
2022/05/14 03:31:42;;;;;;;5.68;2.40;;;12.40;99.90;;;;;;6135754;23;20079;-89
2022/05/14 03:34:10;;;;;;;6.80;2.50;;;12.50;99.90;;;;;;6136072;23;20021;-89
2022/05/14 03:36:37;;;;;;;6.82;2.45;;;12.40;99.90;;;;;;6135838;23;20084;-88
2022/05/14 03:39:03;;;;;;;8.90;2.30;;;12.30;99.90;;;;;;6135482;23;20021;-87
2022/05/14 03:41:28;;;;;;;6.95;2.15;;;12.30;99.90;;;;;;6160157;23;20355;-87
2022/05/14 03:43:54;;;;;;;6.80;1.87;;;12.30;99.90;;;;;;6135469;23;20380;-88
2022/05/14 03:46:20;;;;;;;10.93;1.90;;;12.30;99.90;;;;;;6160162;23;20252;-87
2022/05/14 03:48:46;;;;;;;9.57;2.33;;;12.30;99.90;;;;;;6160134;23;20052;-88
2022/05/14 03:51:11;;;;;;;5.80;1.85;;;12.20;99.90;;;;;;6135305;23;20025;-88
2022/05/14 03:53:38;;;;;;;10.10;2.10;;;12.30;99.90;;;;;;6135852;23;20023;-89
2022/05/14 03:56:05;;;;;;;7.47;2.50;;;12.30;99.90;;;;;;6159979;23;20013;-88
2022/05/14 03:58:31;;;;;;;8.43;2.33;;;12.30;99.90;;;;;;6135529;23;20056;-88
2022/05/14 04:00:57;;;;;;;6.53;2.13;;;12.20;99.90;;;;;;6135391;23;20020;-87
2022/05/14 04:03:24;;;;;;;7.25;2.35;;;12.20;99.90;;;;;;6135139;23;20264;-88
2022/05/14 04:05:50;;;;;;;8.90;2.63;;;12.20;99.90;;;;;;6135235;23;20016;-89
2022/05/14 04:08:17;;;;;;;6.85;1.77;;;12.20;99.90;;;;;;6134935;23;20020;-89
2022/05/14 04:10:44;;;;;;;8.05;2.15;;;12.30;99.90;;;;;;6135771;23;20040;-90
2022/05/14 04:13:12;;;;;;;6.70;2.05;;;12.30;99.90;;;;;;6135313;23;20027;-89
2022/05/14 04:15:38;;;;;;;10.10;2.38;;;12.30;99.90;;;;;;6135661;23;20075;-89
2022/05/14 04:18:04;;;;;;;10.18;2.40;;;12.30;99.90;;;;;;6135813;23;20024;-89
2022/05/14 04:20:30;;;;;;;5.18;1.98;;;12.30;99.90;;;;;;6135331;23;20013;-89
2022/05/14 04:22:56;;;;;;;8.17;2.30;;;12.30;99.90;;;;;;6159785;23;20053;-88
2022/05/14 04:25:23;;;;;;;;;;;12.30;99.90;;;;;;6135849;23;20013;-88
2022/05/14 04:27:49;;;;;;;8.02;2.10;;;12.40;99.90;;;;;;6159985;23;19923;-88
2022/05/14 04:30:16;;;;;;;9.13;2.45;;;12.40;99.90;;;;;;6135372;23;20017;-88
2022/05/14 04:32:43;;;;;;;8.80;1.63;;;12.40;99.90;;;;;;6159414;23;20021;-88
2022/05/14 04:35:10;;;;;;;9.38;2.63;;;12.40;99.90;;;;;;6135146;23;20048;-89
2022/05/14 04:37:36;;;;;;;11.32;2.15;;;12.40;99.90;;;;;;6135434;23;20040;-89
2022/05/14 04:40:04;;;;;;;7.97;2.30;;;12.40;99.90;;;;;;6135367;23;20435;-89
2022/05/14 04:42:30;;;;;;;4.70;1.88;;;12.40;99.90;;;;;;6135212;23;20017;-89
2022/05/14 04:44:56;;;;;;;7.77;2.63;;;12.40;99.90;;;;;;6159837;23;20102;-88
2022/05/14 04:47:21;;;;;;;7.60;2.38;;;12.50;99.90;;;;;;6134973;23;20021;-88
2022/05/14 04:49:48;;;;;;;8.47;2.63;;;12.40;99.90;;;;;;6134675;23;20020;-88
2022/05/14 04:52:15;;;;;;;9.05;2.20;;;12.50;99.90;;;;;;6134769;23;20415;-88
2022/05/14 04:54:41;;;;;;;11.50;3.10;;;12.50;99.90;;;;;;6134597;23;20021;-88
2022/05/14 04:57:08;;;;;;;7.75;2.00;;;12.60;99.90;;;;;;6134916;23;20527;-88
2022/05/14 04:59:35;;;;;;;6.43;1.98;;;12.60;99.90;;;;;;6159284;23;20013;-87
2022/05/14 05:04:46;;;;;;;9.13;3.25;;;12.70;99.90;;;;;;6159514;23;20361;-88
2022/05/14 05:07:12;;;;;;;6.03;2.00;;;12.70;99.90;;;;;;6159264;23;20099;-88
2022/05/14 05:09:38;;;;;;;9.00;2.10;;;12.80;99.90;;;;;;6135048;23;20048;-88
2022/05/14 05:12:05;;;;;;;8.45;2.33;;;12.90;99.90;;;;;;6134537;23;20342;-87
2022/05/14 05:14:31;;;;;;;10.45;2.92;;;12.90;99.90;;;;;;6159079;23;20013;-88
2022/05/14 05:16:57;;;;;;;7.32;2.60;;;13.00;99.90;;;;;;6159233;23;20405;-87
2022/05/14 05:19:23;;;;;;;;;;;13.10;99.90;;;;;;6135134;23;20332;-87
2022/05/14 05:21:50;;;;;;;8.45;2.08;;;13.30;99.90;;;;;;6159083;23;19987;-88
2022/05/14 05:24:16;;;;;;;;;;;13.50;99.90;;;;;;6134951;23;20013;-88
2022/05/14 05:26:42;;;;;;;6.35;2.30;;;13.60;99.90;;;;;;6134936;23;19923;-87
2022/05/14 05:29:08;;;;;;;11.20;2.73;;;13.70;99.90;;;;;;6159135;23;20346;-90
2022/05/14 05:31:34;;;;;;;;;;;13.70;99.90;;;;;;6135334;23;20264;-90
2022/05/14 05:34:01;;;;;;;6.60;1.98;;;13.70;99.90;;;;;;6159328;23;19923;-88
2022/05/14 05:36:27;;;;;;;9.73;2.92;;;13.70;99.90;;;;;;6159280;23;20331;-89
2022/05/14 05:38:52;;;;;;;8.07;3.15;;;13.80;99.90;;;;;;6134956;23;20021;-88
2022/05/14 05:41:19;;;;;;;9.82;1.80;;;13.80;99.90;;;;;;6134838;23;20547;-88
2022/05/14 05:43:46;;;;;;;6.78;2.45;;;13.80;99.90;;;;;;6159294;23;20526;-89
2022/05/14 05:46:12;;;;;;;7.30;1.88;;;13.90;99.90;;;;;;6134613;23;20028;-88
2022/05/14 05:48:39;;;;;;;5.82;1.80;;;14.00;99.90;;;;;;6159211;23;20068;-88
2022/05/14 05:51:05;;;;;;;6.72;2.33;;;14.10;99.90;;;;;;6134514;23;20017;-89
2022/05/14 05:59:00;;;;;;;10.90;2.05;;;14.60;99.90;;;;;;6159554;23;20342;-89
2022/05/14 06:01:25;;;;;;;7.65;2.03;;;14.60;99.90;;;;;;6134599;23;20013;-89
2022/05/14 06:03:51;;;;;;;10.77;2.20;;;14.50;99.90;;;;;;6159119;23;20025;-89
2022/05/14 06:06:19;;;;;;;8.00;2.83;;;14.40;99.90;;;;;;6135004;23;20052;-89
2022/05/14 06:08:45;;;;;;;11.10;2.22;;;14.30;99.90;;;;;;6134813;23;20017;-88
2022/05/14 06:11:11;;;;;;;7.32;1.70;;;14.30;99.90;;;;;;6134714;23;20028;-88
2022/05/14 06:13:36;;;;;;;6.50;2.28;;;14.30;99.90;;;;;;6134303;23;20017;-89
2022/05/14 06:16:02;;;;;;;8.57;1.80;;;14.30;99.90;;;;;;6159317;23;20013;-89
2022/05/14 06:18:28;;;;;;;8.05;2.22;;;14.30;99.90;;;;;;6134622;23;20328;-88
2022/05/14 06:20:54;;;;;;;9.05;2.38;;;14.30;99.90;;;;;;6134452;23;20017;-89
2022/05/14 06:23:20;;;;;;;8.07;1.85;;;14.40;99.90;;;;;;6134676;23;20091;-89
2022/05/14 06:25:45;;;;;;;6.63;1.77;;;14.30;99.90;;;;;;6134730;23;20070;-89
2022/05/14 06:28:12;;;;;;;7.90;2.00;;;14.30;99.90;;;;;;6134719;23;20444;-89
2022/05/14 06:30:41;;;;;;;6.20;1.60;;;14.40;99.90;;;;;;6134522;23;20459;-89
2022/05/14 06:33:08;;;;;;;7.93;2.00;;;14.70;99.90;;;;;;6136334;23;20096;-89
2022/05/14 06:35:36;;;;;;;10.70;2.78;;;15.10;99.90;;;;;;6136687;23;20020;-89
2022/05/14 06:38:03;;;;;;;8.68;1.70;;;15.40;99.90;;;;;;6136721;23;20017;-89
2022/05/14 06:40:29;;;;;;;;;;;15.60;99.90;;;;;;6137066;23;20017;-90
2022/05/14 06:42:54;;;;;;;5.40;1.38;;;15.80;99.90;;;;;;6136386;23;20308;-88
2022/05/14 06:45:36;;;;;;;8.63;2.00;;;15.80;99.90;;;;;;6136232;23;20315;-87
2022/05/14 06:48:07;;;;;;;5.93;1.60;;;16.00;99.90;;;;;;6135637;23;20021;-89
2022/05/14 06:50:48;;;;;;;7.50;1.55;;;16.10;99.90;;;;;;6185145;23;20017;-88
2022/05/14 06:53:17;;;;;;;7.18;1.92;;;16.30;99.90;;;;;;6136109;23;20025;-93
2022/05/14 06:55:46;;;;;;;10.85;1.40;;;16.70;99.90;;;;;;6137320;23;20096;-89
2022/05/14 06:58:16;;;;;;;7.00;1.73;;;17.20;99.90;;;;;;6135824;23;20025;-89
2022/05/14 07:01:17;;;;;;;4.57;1.38;;;17.30;99.90;;;;;;6160319;23;20049;-88
2022/05/14 07:07:17;;;;;;;5.75;1.88;;;16.80;99.90;;;;;;6177093;23;20561;-88
2022/05/14 07:09:48;;;;;;;5.43;1.50;;;16.80;99.90;;;;;;6216871;23;20020;-89
2022/05/14 07:12:14;;;;;;;5.63;1.30;;;17.10;99.90;;;;;;6190350;23;20073;-87
2022/05/14 07:14:40;;;;;;;5.55;1.60;;;17.80;99.90;;;;;;6190031;23;20020;-88
2022/05/14 07:17:12;;;;;;;7.50;1.83;;;18.40;99.90;;;;;;6165650;23;20511;-88
2022/05/14 07:19:38;;;;;;;7.55;1.80;;;18.80;99.90;;;;;;6165899;23;20063;-88
2022/05/14 07:22:04;;;;;;;6.63;1.50;;;18.90;99.90;;;;;;6165782;23;20015;-89
2022/05/14 07:24:31;;;;;;;6.70;1.58;;;18.70;99.90;;;;;;6165716;23;20072;-89
2022/05/14 07:26:58;;;;;;;;;;;18.60;99.90;;;;;;6190516;23;20016;-89
2022/05/14 07:29:26;;;;;;;6.30;1.10;;;18.30;99.90;;;;;;6165105;23;19912;-89
2022/05/14 07:31:53;;;;;;;5.45;1.55;;;18.00;99.90;;;;;;6165101;23;20556;-89
2022/05/14 07:34:20;;;;;;;7.18;1.35;;;17.80;99.90;;;;;;6165116;23;20040;-88
2022/05/14 07:37:13;;;;;;;5.57;1.35;;;17.60;99.90;;;;;;6190152;23;20406;-88
2022/05/14 07:39:50;;;;;;;5.68;1.25;;;17.40;99.90;;;;;;6150703;23;20389;-88
2022/05/14 07:42:26;;;;;;;4.63;1.00;;;17.20;99.90;;;;;;6164605;23;20020;-89
2022/05/14 07:44:55;;;;;;;5.47;1.20;;;17.10;99.90;;;;;;6187531;23;20017;-88
2022/05/14 07:47:22;;;;;;;5.68;1.42;;;17.00;99.90;;;;;;6188337;23;20052;-88
2022/05/14 07:49:49;;;;;;;7.05;1.83;;;16.90;99.90;;;;;;6187781;23;20017;-87
2022/05/14 07:52:17;;;;;;;4.85;1.10;;;16.90;99.90;;;;;;6190027;23;20450;-89
2022/05/14 07:54:43;;;;;;;6.32;1.10;;;16.80;99.90;;;;;;6165018;23;20096;-88
2022/05/14 07:57:08;;;;;;;5.38;1.25;;;16.80;99.90;;;;;;6189584;23;20066;-88
2022/05/14 07:59:46;;;;;;;4.85;0.90;;;16.80;99.90;;;;;;6165542;23;20017;-87
2022/05/14 08:07:32;;;;;;;9.05;1.55;;;16.80;99.90;;;;;;6244625;22;20020;-88
2022/05/14 08:10:01;;;;;;;5.00;1.10;;;16.80;99.90;;;;;;6218405;23;20020;-88
2022/05/14 08:13:04;;;;;;;3.85;1.13;;;16.70;99.90;;;;;;6219632;23;20018;-88
2022/05/14 08:19:29;;;;;;;4.70;0.80;;;16.60;99.90;;;;;;6246552;23;20015;-88
2022/05/14 08:24:39;;;;;;;9.38;1.73;;;16.70;99.90;;;;;;6219667;23;20020;-87
2022/05/14 08:27:08;;;;;;;8.10;1.00;;;16.70;99.90;;;;;;6194372;23;20027;-86
2022/05/14 08:29:47;;;;;;;4.38;0.90;;;16.80;99.90;;;;;;6219772;23;20050;-88
2022/05/14 08:32:14;;;;;;;6.15;0.90;;;16.80;99.90;;;;;;6194754;23;20151;-88
2022/05/14 08:34:40;;;;;;;5.22;1.20;;;16.80;99.90;;;;;;6194588;23;20468;-88
2022/05/14 08:37:06;;;;;;;5.78;1.15;;;16.70;99.90;;;;;;6194722;23;20133;-88
2022/05/14 08:39:32;;;;;;;5.97;1.30;;;16.60;99.90;;;;;;6192503;23;20062;-87
2022/05/14 08:42:18;;;;;;;7.50;1.65;;;16.60;99.90;;;;;;6192868;23;20066;-86
2022/05/14 08:44:46;;;;;;;4.40;1.02;;;16.70;99.90;;;;;;6192575;23;20020;-87
2022/05/14 08:47:39;;;;;;;6.25;1.10;;;16.70;99.90;;;;;;6194013;23;20051;-86
2022/05/14 08:50:11;;;;;;;4.50;1.02;;;16.80;99.90;;;;;;6218485;23;20019;-88
2022/05/14 08:52:38;;;;;;;6.05;1.00;;;16.80;99.90;;;;;;6219013;23;20016;-87
2022/05/14 08:55:08;;;;;;;5.18;1.08;;;16.80;99.90;;;;;;6218841;23;20052;-87
2022/05/14 08:57:52;;;;;;;6.95;1.50;;;16.80;99.90;;;;;;6219163;23;20016;-87
2022/05/14 09:00:18;;;;;;;6.75;1.30;;;16.80;99.90;;;;;;6194215;23;20012;-87
2022/05/14 09:02:58;;;;;;;3.42;1.00;;;16.80;99.90;;;;;;6219194;23;20016;-90
2022/05/14 09:05:35;;;;;;;6.85;1.20;;;16.80;99.90;;;;;;6194228;23;20012;-86
2022/05/14 09:08:07;;;;;;;4.85;1.42;;;16.80;99.90;;;;;;6193892;23;20501;-88
2022/05/14 09:10:43;;;;;;;8.35;1.55;;;16.80;99.90;;;;;;6193676;23;20082;-87
2022/05/14 09:13:23;;;;;;;8.65;1.40;;;16.80;99.90;;;;;;6193862;23;20020;-89
2022/05/14 09:15:59;;;;;;;4.55;0.90;;;16.90;99.90;;;;;;6195092;23;20016;-88
2022/05/14 09:18:33;;;;;;;7.25;1.60;;;17.10;99.90;;;;;;6246128;23;20519;-88
2022/05/14 09:21:15;;;;;;;4.97;1.08;;;17.10;99.90;;;;;;6194726;23;20016;-88
2022/05/14 09:23:57;;;;;;;6.63;1.40;;;17.10;99.90;;;;;;6194624;23;20020;-89
2022/05/14 09:26:25;;;;;;;8.68;1.52;;;17.10;99.90;;;;;;6193558;23;20111;-89
2022/05/14 09:28:53;;;;;;;5.05;1.10;;;17.20;99.90;;;;;;6193774;23;20020;-88
2022/05/14 09:31:26;;;;;;;7.10;1.27;;;17.30;99.90;;;;;;6219089;23;20023;-88
2022/05/14 09:34:12;;;;;;;5.03;1.35;;;17.30;99.90;;;;;;6193809;23;20024;-88
2022/05/14 09:36:41;;;;;;;7.38;1.17;;;17.30;99.90;;;;;;6219571;23;20016;-88
2022/05/14 09:39:20;;;;;;;8.68;1.20;;;17.30;99.90;;;;;;6219782;23;20023;-88
2022/05/14 09:42:01;;;;;;;5.13;1.50;;;17.20;99.90;;;;;;6194836;23;20446;-91
2022/05/14 09:44:30;;;;;;;11.88;1.40;;;17.20;99.90;;;;;;6194079;23;20027;-94
2022/05/14 09:47:05;;;;;;;4.75;1.10;;;17.20;99.90;;;;;;6219175;23;20016;-88
2022/05/14 09:49:44;;;;;;;;;;;;;;;;;;;;;
2022/05/14 09:52:13;;;;;;;5.25;1.35;;;17.30;99.90;;;;;;6218542;23;20016;-90
2022/05/14 09:54:46;;;;;;;4.55;1.10;;;17.30;99.90;;;;;;6216761;23;20020;-88
2022/05/14 09:57:33;;;;;;;7.68;2.63;;;17.30;99.90;;;;;;6193935;23;20024;-90
2022/05/14 10:00:33;;;;;;;11.50;1.83;;;17.40;99.90;;;;;;6218698;23;20528;-91
2022/05/14 10:02:59;;;;;;;9.05;1.50;;;17.50;99.90;;;;;;6194559;23;20346;-88
2022/05/14 10:05:57;;;;;;;5.30;1.23;;;17.40;99.90;;;;;;6193600;23;20016;-88
2022/05/14 10:08:38;;;;;;;3.30;1.25;;;17.40;99.90;;;;;;6195637;23;20480;-87
2022/05/14 10:11:26;;;;;;;8.50;1.50;;;17.40;99.90;;;;;;6196260;23;20048;-88
2022/05/14 10:14:24;;;;;;;4.05;1.20;;;17.50;99.90;;;;;;6196219;23;20027;-88
2022/05/14 10:17:16;;;;;;;5.30;1.10;;;17.70;99.90;;;;;;6196048;23;20023;-88
2022/05/14 10:20:03;;;;;;;5.30;1.40;;;17.90;99.90;;;;;;6196139;23;20457;-90
2022/05/14 10:29:04;;;;;;;5.93;1.58;;;18.00;99.90;;;;;;6221099;23;20472;-90
2022/05/14 10:31:46;;;;;;;7.28;2.65;;;18.20;99.90;;;;;;6195623;23;20020;-91
2022/05/14 10:34:21;;;;;;;6.30;1.17;;;18.30;99.60;;;;;;6219247;23;20020;-92
2022/05/14 10:36:55;;;;;;;8.25;1.25;;;18.40;99.60;;;;;;6247950;23;20441;-89
2022/05/14 10:39:39;;;;;;;5.03;1.40;;;18.30;99.20;;;;;;6196310;23;20465;-90
2022/05/14 10:42:24;;;;;;;4.55;1.05;;;18.20;99.40;;;;;;6196909;23;20020;-88
2022/05/14 10:44:55;;;;;;;5.05;1.33;;;18.30;99.30;;;;;;6196585;23;20095;-88
2022/05/14 10:47:30;;;;;;;6.50;1.70;;;18.40;99.10;;;;;;6197990;23;20065;-91
2022/05/14 10:50:04;;;;;;;6.70;1.52;;;18.50;98.90;;;;;;6197030;23;20022;-90
2022/05/14 10:52:30;;;;;;;6.70;1.20;;;18.60;98.70;;;;;;6221743;23;20016;-88
2022/05/14 10:54:57;;;;;;;7.97;1.55;;;18.70;98.30;;;;;;6219627;23;20018;-89
2022/05/14 10:57:41;;;;;;;4.05;0.95;;;18.70;98.00;;;;;;6220814;23;20020;-88
2022/05/14 11:00:43;;;;;;;5.38;1.30;;;18.90;97.10;;;;;;6195670;23;20111;-89
2022/05/14 11:03:24;;;;;;;4.43;1.17;;;19.10;96.60;;;;;;6220671;23;20016;-91
2022/05/14 11:06:02;;;;;;;7.45;1.30;;;19.20;96.80;;;;;;6246956;23;20093;-88
2022/05/14 11:08:43;;;;;;;5.90;1.30;;;19.30;96.50;;;;;;6218852;23;20102;-89
2022/05/14 11:11:12;;;;;;;9.02;1.58;;;19.50;96.30;;;;;;6195647;23;20055;-89
2022/05/14 11:13:39;;;;;;;9.27;1.27;;;19.60;96.30;;;;;;6220376;23;20063;-87
2022/05/14 11:16:10;;;;;;;6.43;1.80;;;19.80;95.80;;;;;;6195574;23;20082;-86
2022/05/14 11:18:54;;;;;;;7.63;1.55;;;19.90;95.10;;;;;;6247265;23;20016;-87
2022/05/14 11:21:37;;;;;;;5.45;1.23;;;20.00;93.90;;;;;;6195231;23;20445;-89
2022/05/14 11:24:03;;;;;;;6.80;1.10;;;20.10;92.30;;;;;;6195829;23;20028;-88
2022/05/14 11:26:30;;;;;;;4.60;1.10;;;20.00;93.10;;;;;;6220720;23;20012;-92
2022/05/14 11:29:00;;;;;;;;;;;19.90;92.90;;;;;;6196131;23;20015;-88
2022/05/14 11:31:31;;;;;;;7.38;1.48;;;19.60;90.10;;;;;;6195412;23;19922;-88
2022/05/14 11:34:13;;;;;;;9.10;1.30;;;19.40;92.60;;;;;;6220421;23;20027;-86
2022/05/14 11:36:46;;;;;;;4.80;1.00;;;19.40;92.90;;;;;;6195244;23;20012;-88
2022/05/14 11:39:24;;;;;;;6.97;1.42;;;19.60;92.80;;;;;;6220445;23;20073;-88
2022/05/14 11:42:06;;;;;;;7.60;1.40;;;19.70;91.60;;;;;;6195004;23;20060;-87
2022/05/14 11:44:41;;;;;;;3.88;1.38;;;19.60;92.30;;;;;;6195173;23;20575;-87
2022/05/14 11:47:42;;;;;;;7.10;2.22;;;19.40;92.20;;;;;;6220198;23;20023;-90
2022/05/14 11:50:10;;;;;;;6.70;1.40;;;19.50;92.70;;;;;;6195131;23;20095;-89
2022/05/14 11:53:06;;;;;;;6.35;1.40;;;19.50;92.40;;;;;;6218983;23;20016;-86
2022/05/14 11:55:52;;;;;;;6.28;1.25;;;19.40;91.70;;;;;;6194336;23;20493;-87
2022/05/14 11:58:41;;;;;;;5.45;1.20;;;19.20;91.90;;;;;;6219684;23;20046;-87
2022/05/14 12:01:11;;;;;;;5.88;1.30;;;19.30;91.50;;;;;;6219845;23;20096;-87
2022/05/14 12:03:40;;;;;;;6.63;1.25;;;19.40;92.10;;;;;;6194274;23;20490;-88
2022/05/14 12:06:31;;;;;;;5.97;1.52;;;19.40;92.30;;;;;;6246093;23;20012;-88
2022/05/14 12:09:07;;;;;;;6.22;1.50;;;19.50;92.30;;;;;;6194545;23;20460;-88
2022/05/14 12:11:53;;;;;;;7.18;1.73;;;19.50;92.30;;;;;;6194558;23;20447;-87
2022/05/14 12:14:27;;;;;;;6.22;1.10;;;19.50;92.60;;;;;;6218074;23;20346;-87
2022/05/14 12:16:56;;;;;;;4.68;1.05;;;19.40;92.90;;;;;;6194123;23;20012;-88
2022/05/14 12:19:25;;;;;;;5.90;1.20;;;19.40;93.00;;;;;;6195211;23;20341;-89
2022/05/14 12:22:03;;;;;;;13.35;1.65;;;19.20;93.00;;;;;;6219986;23;20365;-86
2022/05/14 12:24:40;;;;;;;6.18;1.10;;;19.10;92.90;;;;;;6194467;23;20023;-90
2022/05/14 12:27:18;;;;;;;5.28;1.25;;;18.90;93.10;;;;;;6218291;23;20034;-87
2022/05/14 12:30:05;;;;;;;7.20;1.15;;;18.90;93.20;;;;;;6243921;23;20023;-88
2022/05/14 12:35:22;;;;;;;6.03;1.70;;;19.10;93.50;;;;;;6246529;23;19922;-87
2022/05/14 12:37:52;;;;;;;9.45;1.50;;;19.30;93.60;;;;;;6219863;23;20012;-88
2022/05/14 12:40:35;;;;;;;4.18;1.20;;;19.30;93.30;;;;;;6194430;23;20016;-87
2022/05/14 12:43:04;;;;;;;5.95;1.70;;;19.50;93.40;;;;;;6194584;23;20319;-86
2022/05/14 12:45:36;;;;;;;5.95;1.92;;;19.70;93.60;;;;;;6219723;23;20020;-88
2022/05/14 12:48:04;;;;;;;5.97;1.70;;;19.90;93.40;;;;;;6219499;23;20020;-88
2022/05/14 12:50:32;;;;;;;6.00;1.63;;;20.10;93.30;;;;;;6194071;23;20019;-89
2022/05/14 12:53:02;;;;;;;6.10;1.88;;;20.20;93.20;;;;;;6193139;23;20027;-91
2022/05/14 12:55:36;;;;;;;6.85;1.50;;;20.20;92.50;;;;;;6219938;23;20016;-89
2022/05/14 12:58:03;;;;;;;7.55;1.45;;;20.10;92.00;;;;;;6220350;23;20098;-90
2022/05/14 13:00:36;;;;;;;6.03;1.50;;;19.80;91.80;;;;;;6194729;23;20087;-90
2022/05/14 13:03:32;;;;;;;10.05;1.33;;;19.60;91.60;;;;;;6194906;23;20016;-89
2022/05/14 13:06:06;;;;;;;6.03;1.77;;;19.50;91.70;;;;;;6194781;23;20016;-89
2022/05/14 13:08:44;;;;;;;5.35;1.30;;;19.40;92.00;;;;;;6193751;23;20444;-90
2022/05/14 13:11:18;;;;;;;8.52;1.40;;;19.30;92.30;;;;;;6194066;23;20103;-89
2022/05/14 13:16:28;;;;;;;6.53;1.55;;;19.20;92.50;;;;;;6245796;22;20031;-89
2022/05/14 13:33:12;;;;;;;7.45;1.50;;;19.00;92.90;;;;;;6218068;23;20021;-89
2022/05/14 13:54:07;;;;;;;7.57;1.30;;;19.50;91.60;;;;;;6184507;23;20099;-88
2022/05/14 13:56:34;;;;;;;4.93;1.20;;;19.40;91.60;;;;;;6134451;23;20071;-88
2022/05/14 13:59:06;;;;;;;9.07;2.08;;;19.30;92.20;;;;;;6134439;23;20021;-90
2022/05/14 14:01:45;;;;;;;7.10;1.25;;;19.30;92.20;;;;;;6134596;23;20096;-90
2022/05/14 14:04:34;;;;;;;8.18;1.67;;;19.20;91.90;;;;;;6133696;23;20021;-89
2022/05/14 14:07:10;;;;;;;9.68;1.75;;;19.20;91.30;;;;;;6157572;23;20132;-89
2022/05/14 14:09:39;;;;;;;7.68;1.70;;;19.20;90.90;;;;;;6133547;23;20049;-88
2022/05/14 14:12:08;;;;;;;6.60;1.60;;;19.10;91.30;;;;;;6134227;23;20021;-88
2022/05/14 14:15:06;;;;;;;;;;;;;;;;;;;;;
2022/05/14 14:17:44;;;;;;;5.97;1.60;;;18.90;91.60;;;;;;6159038;23;20020;-89
2022/05/14 14:20:21;;;;;;;12.35;1.75;;;19.00;91.90;;;;;;6158933;23;20481;-91
2022/05/14 14:22:53;;;;;;;7.90;2.08;;;19.20;91.50;;;;;;6158712;23;20018;-89
2022/05/14 14:25:21;;;;;;;7.40;1.60;;;19.30;91.60;;;;;;6134487;23;20097;-89